Time;durP1;ratioP1;P1;durP2;ratioP2;P2;SDS_P1;SDS_P2;PMS_P1;PMS_P2;Temp;Humidity;BMP_temperature;BMP_pressure;BME280_temperature;BME280_humidity;BME280_pressure;Samples;Min_cycle;Max_cycle;Signal;HPM_P1;HPM_P2
2023/10/02 00:01:43;;;;;;;21.90;9.77;;;;;;;-145.18;100.00;46660.41;4994436;28;20409;-60
2023/10/02 00:04:17;;;;;;;22.17;8.57;;;;;;;-145.18;100.00;46636.94;4995058;28;20030;-60
2023/10/02 00:06:43;;;;;;;20.23;8.77;;;;;;;-145.18;100.00;46660.41;4993431;28;20062;-59
2023/10/02 00:09:08;;;;;;;20.83;9.40;;;;;;;-145.18;100.00;46636.94;4990957;28;20053;-60
2023/10/02 00:11:37;;;;;;;24.67;9.87;;;;;;;-145.18;100.00;46660.41;4986732;28;20077;-60
2023/10/02 00:14:19;;;;;;;23.43;9.03;;;;;;;-145.18;100.00;46660.41;4994166;28;20494;-60
2023/10/02 00:16:58;;;;;;;24.30;9.57;;;;;;;-145.18;100.00;46660.41;4993018;28;20026;-59
2023/10/02 00:19:35;;;;;;;20.40;9.30;;;;;;;-145.18;100.00;46660.41;4988528;28;20084;-60
2023/10/02 00:22:06;;;;;;;20.87;9.07;;;;;;;-145.18;100.00;46660.41;4993843;28;20030;-60
2023/10/02 00:24:37;;;;;;;22.10;9.57;;;;;;;-145.18;100.00;46660.41;4990000;28;20041;-60
2023/10/02 00:27:04;;;;;;;22.37;10.03;;;;;;;-145.18;100.00;46660.41;4988387;28;20027;-60
2023/10/02 00:29:30;;;;;;;24.37;9.83;;;;;;;-145.18;100.00;46660.41;4993656;28;20030;-60
2023/10/02 00:31:56;;;;;;;25.40;8.90;;;;;;;-145.18;100.00;46660.41;4987881;28;20022;-60
2023/10/02 00:34:31;;;;;;;21.57;9.67;;;;;;;-145.18;100.00;46660.41;4994141;28;20019;-60
2023/10/02 00:37:05;;;;;;;27.23;11.50;;;;;;;-145.18;100.00;46660.41;4994492;28;20027;-60
2023/10/02 00:39:41;;;;;;;24.30;9.23;;;;;;;-145.18;100.00;46660.41;4985783;28;20042;-65
2023/10/02 00:44:54;;;;;;;21.60;9.50;;;;;;;-145.18;100.00;46660.41;4992962;28;20035;-65
2023/10/02 00:47:38;;;;;;;22.70;9.13;;;;;;;-145.18;100.00;46660.41;4993379;28;20026;-65
2023/10/02 00:50:18;;;;;;;27.93;9.43;;;;;;;-145.18;100.00;46660.41;4986082;28;20109;-65
2023/10/02 00:52:55;;;;;;;22.90;8.43;;;;;;;-145.18;100.00;46660.41;4993957;28;20105;-65
2023/10/02 00:55:24;;;;;;;22.07;9.67;;;;;;;-145.18;100.00;46660.41;4987063;28;20037;-66
2023/10/02 00:57:52;;;;;;;19.43;9.20;;;;;;;-145.18;100.00;46660.41;4992942;28;20049;-65
2023/10/02 01:00:30;;;;;;;23.87;9.73;;;;;;;-145.18;100.00;46660.41;4993924;28;20022;-65
2023/10/02 01:02:58;;;;;;;24.67;9.60;;;;;;;-145.18;100.00;46660.41;4982423;28;20100;-65
2023/10/02 01:05:41;;;;;;;21.70;8.37;;;;;;;-145.18;100.00;46660.41;4992069;28;20042;-65
2023/10/02 01:08:23;;;;;;;23.50;9.27;;;;;;;-145.18;100.00;46660.41;4989257;28;20032;-65
2023/10/02 01:10:59;;;;;;;22.07;9.23;;;;;;;-145.18;100.00;46660.41;4993393;28;20030;-65
2023/10/02 01:13:34;;;;;;;;;;;;;;;-145.18;100.00;46660.41;4993393;28;20033;-65
2023/10/02 01:16:08;;;;;;;24.30;10.40;;;;;;;-145.18;100.00;46660.41;4993429;28;20000;-65
2023/10/02 01:18:35;;;;;;;20.77;9.43;;;;;;;-145.18;100.00;46660.41;4978872;28;21038;-65
2023/10/02 01:21:09;;;;;;;22.80;8.57;;;;;;;-145.18;100.00;46660.41;4986611;28;20075;-65
2023/10/02 01:24:06;;;;;;;21.03;8.90;;;;;;;-145.18;100.00;46660.41;4980537;28;20078;-65
2023/10/02 01:26:31;;;;;;;23.60;9.00;;;;;;;-145.18;100.00;46660.41;4993035;28;20038;-66
2023/10/02 01:28:58;;;;;;;20.40;8.43;;;;;;;-145.18;100.00;46660.41;4993443;28;20034;-65
2023/10/02 01:31:35;;;;;;;23.97;10.10;;;;;;;-145.18;100.00;46660.41;4991765;28;20037;-65
2023/10/02 01:34:04;;;;;;;23.17;9.87;;;;;;;-145.18;100.00;46660.41;4993460;28;20018;-66
2023/10/02 01:36:31;;;;;;;24.13;9.47;;;;;;;-145.18;100.00;46660.41;4993006;28;20509;-66
2023/10/02 01:39:10;;;;;;;22.13;9.80;;;;;;;-145.18;100.00;46660.41;4992939;28;20057;-65
2023/10/02 01:41:36;;;;;;;23.87;9.27;;;;;;;-145.18;100.00;46660.41;4992768;28;20026;-66
2023/10/02 01:44:07;;;;;;;23.60;9.73;;;;;;;-145.18;100.00;46660.41;4985162;28;20097;-66
2023/10/02 01:46:36;;;;;;;26.17;10.40;;;;;;;-145.18;100.00;46654.53;4992951;28;20136;-66
2023/10/02 01:49:02;;;;;;;20.50;9.10;;;;;;;-145.18;100.00;46658.44;4992818;28;20038;-65
2023/10/02 01:51:31;;;;;;;24.77;9.47;;;;;;;-145.18;100.00;46660.41;4992222;28;20030;-66
2023/10/02 01:53:59;;;;;;;22.40;9.60;;;;;;;-145.18;100.00;46660.41;4992331;28;20030;-65
2023/10/02 01:56:25;;;;;;;21.23;8.93;;;;;;;-145.18;100.00;46658.44;4992815;28;20113;-65
2023/10/02 01:58:52;;;;;;;30.73;11.20;;;;;;;-145.18;100.00;46658.44;4992315;28;20038;-66
2023/10/02 02:01:20;;;;;;;20.80;9.33;;;;;;;-145.18;100.00;46660.41;4990518;28;20029;-65
2023/10/02 02:03:48;;;;;;;20.57;9.50;;;;;;;-145.18;100.00;46660.41;4995069;28;20034;-65
2023/10/02 02:06:20;;;;;;;22.53;9.67;;;;;;;-145.18;100.00;46660.41;5001130;28;20443;-65
2023/10/02 02:08:49;;;;;;;25.40;10.00;;;;;;;-145.18;100.00;46654.53;4982058;28;20056;-66
2023/10/02 02:11:23;;;;;;;20.40;8.97;;;;;;;-145.18;100.00;46658.44;4992344;28;20026;-60
2023/10/02 02:13:53;;;;;;;22.87;9.23;;;;;;;-145.18;100.00;46660.41;4991934;28;20019;-60
2023/10/02 02:16:22;;;;;;;21.13;8.77;;;;;;;-145.18;100.00;46660.41;4992342;28;20026;-61
2023/10/02 02:18:55;;;;;;;20.47;9.33;;;;;;;-145.18;100.00;46660.41;4989599;28;20022;-60
2023/10/02 02:21:24;;;;;;;23.40;9.77;;;;;;;-145.18;100.00;46660.41;4992336;28;20061;-60
2023/10/02 02:24:03;;;;;;;25.57;10.23;;;;;;;-145.18;100.00;46660.41;4991922;28;20050;-60
2023/10/02 02:26:33;;;;;;;21.13;9.13;;;;;;;-145.18;100.00;46658.44;4992131;28;20041;-60
2023/10/02 02:29:00;;;;;;;20.23;8.40;;;;;;;-145.18;100.00;46660.41;4992137;28;20479;-60
2023/10/02 02:31:32;;;;;;;21.57;9.47;;;;;;;-145.18;100.00;46658.44;4991948;28;20148;-60
2023/10/02 02:34:01;;;;;;;23.47;9.33;;;;;;;-145.18;100.00;46658.44;4981263;28;20026;-60
2023/10/02 02:36:28;;;;;;;20.37;9.13;;;;;;;-145.18;100.00;46658.44;4991776;28;20152;-60
2023/10/02 02:39:15;;;;;;;23.07;8.77;;;;;;;-145.18;100.00;46658.44;4985503;28;20053;-60
2023/10/02 02:41:41;;;;;;;17.40;9.37;;;;;;;-145.18;100.00;46660.41;4986468;28;20026;-60
2023/10/02 02:44:29;;;;;;;18.83;9.30;;;;;;;-145.18;100.00;46656.50;4992041;28;20157;-60
2023/10/02 02:46:55;;;;;;;23.70;9.35;;;;;;;-145.18;100.00;46660.41;4982995;28;20034;-60
2023/10/02 02:49:29;;;;;;;24.10;9.50;;;;;;;-145.18;100.00;46660.41;4992119;28;20060;-60
2023/10/02 02:51:58;;;;;;;20.83;9.23;;;;;;;-145.18;100.00;46660.41;4997155;28;20038;-60
2023/10/02 02:54:25;;;;;;;25.70;9.43;;;;;;;-145.18;100.00;46660.41;4998012;28;20031;-60
2023/10/02 02:56:58;;;;;;;23.73;9.30;;;;;;;-145.18;100.00;46660.41;4998085;28;20030;-61
2023/10/02 02:59:29;;;;;;;25.20;10.00;;;;;;;-145.18;100.00;46660.41;4986633;28;20129;-60
2023/10/02 03:02:21;;;;;;;23.67;9.50;;;;;;;-145.18;100.00;46656.50;4998098;28;20023;-60
2023/10/02 03:04:47;;;;;;;23.90;9.90;;;;;;;-145.18;100.00;46660.41;4990343;28;20470;-60
2023/10/02 03:07:29;;;;;;;24.67;10.47;;;;;;;-145.18;100.00;46660.41;4996632;28;20054;-60
2023/10/02 03:09:57;;;;;;;20.60;9.57;;;;;;;-145.18;100.00;46660.41;4998675;28;20034;-60
2023/10/02 03:12:23;;;;;;;22.60;9.17;;;;;;;-145.18;100.00;46660.41;4992576;28;20037;-60
2023/10/02 03:14:51;;;;;;;21.70;9.53;;;;;;;-145.18;100.00;46658.44;4995109;28;20022;-60
2023/10/02 03:17:28;;;;;;;22.40;8.93;;;;;;;-145.18;100.00;46660.41;4989991;28;20031;-60
2023/10/02 03:20:00;;;;;;;26.20;10.13;;;;;;;-145.18;100.00;46656.50;4995370;28;20501;-60
2023/10/02 03:22:27;;;;;;;22.63;9.70;;;;;;;-145.18;100.00;46656.50;4997882;28;20042;-60
2023/10/02 03:24:57;;;;;;;24.47;9.23;;;;;;;-145.18;100.00;46658.44;4997617;28;20554;-60
2023/10/02 03:27:22;;;;;;;21.17;9.00;;;;;;;-145.18;100.00;46658.44;4998233;28;20042;-60
2023/10/02 03:29:49;;;;;;;23.43;9.03;;;;;;;-145.18;100.00;46658.44;4997761;28;20045;-60
2023/10/02 03:32:15;;;;;;;23.53;9.67;;;;;;;-145.18;100.00;46656.50;4997869;28;20037;-60
2023/10/02 03:34:44;;;;;;;22.90;10.00;;;;;;;-145.18;100.00;46658.44;4996077;28;20035;-60
2023/10/02 03:37:15;;;;;;;21.53;9.73;;;;;;;-145.18;100.00;46654.53;4997968;28;20038;-60
2023/10/02 03:39:59;;;;;;;26.10;9.17;;;;;;;-145.18;100.00;46656.50;4994310;28;20045;-61
2023/10/02 03:42:32;;;;;;;24.00;9.50;;;;;;;-145.18;100.00;46656.50;4988135;28;20045;-60
2023/10/02 03:45:00;;;;;;;24.37;9.70;;;;;;;-145.18;100.00;46658.44;4995870;28;20057;-60
2023/10/02 03:47:30;;;;;;;20.53;8.90;;;;;;;-145.18;100.00;46654.53;4998162;28;20049;-60
2023/10/02 03:50:02;;;;;;;19.77;8.80;;;;;;;-145.18;100.00;46658.44;4997815;28;20041;-60
2023/10/02 03:52:30;;;;;;;22.67;10.17;;;;;;;-145.18;100.00;46656.50;4988153;28;20033;-60
2023/10/02 03:54:56;;;;;;;19.40;9.13;;;;;;;-145.18;100.00;46656.50;4997109;28;20375;-61
2023/10/02 03:57:47;;;;;;;22.57;9.10;;;;;;;-145.18;100.00;46652.59;5000633;28;20042;-61
2023/10/02 04:00:26;;;;;;;24.27;9.07;;;;;;;-145.18;100.00;46656.50;4997307;28;21418;-60
2023/10/02 04:02:54;;;;;;;21.90;9.23;;;;;;;-145.18;100.00;46654.53;4994786;28;20030;-60
2023/10/02 04:08:14;;;;;;;21.40;10.05;;;;;;;-145.18;100.00;46658.44;4992691;28;20041;-60
2023/10/02 04:10:55;;;;;;;23.50;9.85;;;;;;;-145.18;100.00;46652.59;4998687;28;20038;-60
2023/10/02 04:13:32;;;;;;;21.17;10.30;;;;;;;-145.18;100.00;46658.44;4993021;28;20414;-61
2023/10/02 04:18:46;;;;;;;24.63;10.83;;;;;;;-145.18;100.00;46652.59;4988889;28;20080;-60
2023/10/02 04:21:25;;;;;;;29.03;10.00;;;;;;;-145.18;100.00;46656.50;4994244;28;20375;-60
2023/10/02 04:23:53;;;;;;;19.87;9.50;;;;;;;-145.18;100.00;46658.44;4993930;28;20038;-60
2023/10/02 04:26:20;;;;;;;22.17;9.00;;;;;;;-145.18;100.00;46652.59;4985944;28;20053;-60
2023/10/02 04:28:55;;;;;;;20.70;9.77;;;;;;;-145.18;100.00;46658.44;4994472;28;20127;-60
2023/10/02 04:31:22;;;;;;;24.53;9.87;;;;;;;-145.18;100.00;46656.50;4994380;28;20023;-66
2023/10/02 04:33:54;;;;;;;25.73;9.70;;;;;;;-145.18;100.00;46654.53;4994431;28;20061;-66
2023/10/02 04:36:31;;;;;;;25.27;10.00;;;;;;;-145.18;100.00;46654.53;4995939;28;20049;-66
2023/10/02 04:38:57;;;;;;;25.13;9.60;;;;;;;-145.18;100.00;46656.50;4992945;28;20429;-66
2023/10/02 04:41:26;;;;;;;20.37;10.00;;;;;;;-145.18;100.00;46656.50;5001423;28;20034;-65
2023/10/02 04:43:57;;;;;;;20.07;9.03;;;;;;;-145.18;100.00;46654.53;4992279;28;20029;-66
2023/10/02 04:46:28;;;;;;;24.20;10.03;;;;;;;-145.18;100.00;46658.44;4996598;28;20061;-66
2023/10/02 04:48:59;;;;;;;24.53;11.00;;;;;;;-145.18;100.00;46652.59;4992940;28;20054;-66
2023/10/02 04:51:30;;;;;;;27.20;10.33;;;;;;;-145.18;100.00;46652.59;4993539;28;20099;-66
2023/10/02 04:54:05;;;;;;;20.37;9.50;;;;;;;-145.18;100.00;46650.63;4994244;28;20101;-66
2023/10/02 04:56:30;;;;;;;22.50;9.83;;;;;;;-145.18;100.00;46652.59;4994297;28;20038;-65
2023/10/02 04:58:58;;;;;;;24.23;10.40;;;;;;;-145.18;100.00;46654.53;4993965;28;20071;-66
2023/10/02 05:01:34;;;;;;;25.33;10.63;;;;;;;-145.18;100.00;46652.59;4993641;28;20478;-66
2023/10/02 05:04:04;;;;;;;25.83;10.17;;;;;;;-145.18;100.00;46654.53;4993570;28;20030;-66
2023/10/02 05:06:44;;;;;;;20.87;9.03;;;;;;;-145.18;100.00;46656.50;4993565;28;20092;-66
2023/10/02 05:11:55;;;;;;;24.17;9.87;;;;;;;-145.18;100.00;46652.59;4993390;28;20482;-66
2023/10/02 05:14:47;;;;;;;22.05;9.50;;;;;;;-145.18;100.00;46650.63;4993411;28;20033;-66
2023/10/02 05:17:38;;;;;;;25.00;9.83;;;;;;;-145.18;100.00;46650.63;4992365;28;20545;-66
2023/10/02 05:20:04;;;;;;;26.20;9.93;;;;;;;-145.18;100.00;46652.59;4981346;28;20065;-66
2023/10/02 05:22:36;;;;;;;26.30;10.57;;;;;;;-145.18;100.00;46652.59;4992006;28;20125;-66
2023/10/02 05:25:04;;;;;;;20.47;9.83;;;;;;;-145.18;100.00;46656.50;4991664;28;20093;-66
2023/10/02 05:27:37;;;;;;;25.27;10.23;;;;;;;-145.18;100.00;46650.63;4991977;28;20619;-66
2023/10/02 05:30:12;;;;;;;27.20;10.87;;;;;;;-145.18;100.00;46656.50;4991778;28;20046;-66
2023/10/02 05:32:39;;;;;;;22.27;9.98;;;;;;;-145.18;100.00;46652.59;4989691;28;20490;-67
2023/10/02 05:37:39;;;;;;;22.83;10.47;;;;;;;-145.18;100.00;46652.59;4991171;28;20042;-66
2023/10/02 05:40:48;;;;;;;26.48;10.52;;;;;;;-145.18;100.00;46652.59;4991809;28;20027;-66
2023/10/02 05:45:40;;;;;;;27.53;10.67;;;;;;;-145.18;100.00;46652.59;4991703;28;20065;-66
2023/10/02 05:48:15;;;;;;;22.40;9.37;;;;;;;-145.18;100.00;46650.63;4990934;28;20038;-66
2023/10/02 05:50:47;;;;;;;23.67;9.98;;;;;;;-145.18;100.00;46652.59;4988560;28;20034;-66
2023/10/02 05:53:29;;;;;;;22.57;10.13;;;;;;;-145.18;100.00;46654.53;4995901;28;20037;-66
2023/10/02 05:56:05;;;;;;;21.80;10.00;;;;;;;-145.18;100.00;46652.59;4992439;28;20572;-67
2023/10/02 05:58:35;;;;;;;26.10;10.90;;;;;;;-145.18;100.00;46652.59;4993030;28;20053;-66
2023/10/02 06:01:12;;;;;;;27.60;10.53;;;;;;;-145.18;100.00;46656.50;4992161;28;20026;-66
2023/10/02 06:03:37;;;;;;;23.13;9.67;;;;;;;-145.18;100.00;46656.50;4992462;28;20435;-66
2023/10/02 06:06:17;;;;;;;23.83;10.13;;;;;;;-145.18;100.00;46654.53;4992973;28;20065;-66
2023/10/02 06:08:48;;;;;;;25.67;9.73;;;;;;;-145.18;100.00;46652.59;4992160;28;20019;-66
2023/10/02 06:11:26;;;;;;;29.00;10.50;;;;;;;-145.18;100.00;46652.59;4992222;28;20030;-67
2023/10/02 06:13:56;;;;;;;28.87;10.97;;;;;;;-145.18;100.00;46652.59;4992636;28;20077;-66
2023/10/02 06:16:24;;;;;;;26.03;10.07;;;;;;;-145.18;100.00;46652.59;4989875;28;20045;-66
2023/10/02 06:19:02;;;;;;;28.53;10.57;;;;;;;-145.18;100.00;46642.81;4986950;28;20046;-66
2023/10/02 06:21:28;;;;;;;23.00;9.60;;;;;;;-145.18;100.00;46652.59;4992170;28;20527;-66
2023/10/02 06:23:54;;;;;;;25.37;10.37;;;;;;;-145.18;100.00;46656.50;4992225;28;20417;-66
2023/10/02 06:26:25;;;;;;;25.80;11.23;;;;;;;-145.18;100.00;46650.63;4991238;28;20037;-66
2023/10/02 06:29:13;;;;;;;25.13;10.87;;;;;;;-145.18;100.00;46652.59;4993188;28;20466;-66
2023/10/02 06:31:41;;;;;;;26.30;11.98;;;;;;;-145.18;100.00;46640.88;4990296;28;20038;-65
2023/10/02 06:34:08;;;;;;;32.60;11.53;;;;;;;-145.18;100.00;46654.53;4991112;28;20085;-65
2023/10/02 06:36:45;;;;;;;25.70;10.70;;;;;;;-145.18;100.00;46652.59;4992620;28;20087;-66
2023/10/02 06:39:13;;;;;;;27.33;11.47;;;;;;;-145.18;100.00;46654.53;4985786;28;20501;-66
2023/10/02 06:41:38;;;;;;;22.37;11.00;;;;;;;-145.18;100.00;46640.88;4985656;28;20481;-66
2023/10/02 06:44:14;;;;;;;27.43;12.13;;;;;;;-145.18;100.00;46652.59;4992167;28;20117;-66
2023/10/02 06:46:55;;;;;;;27.07;11.27;;;;;;;-145.18;100.00;46652.59;4991939;28;20018;-66
2023/10/02 06:49:21;;;;;;;25.87;11.03;;;;;;;-145.18;100.00;46652.59;4983725;28;20038;-66
2023/10/02 06:51:49;;;;;;;24.70;11.07;;;;;;;-145.18;100.00;46650.63;4992059;28;20053;-66
2023/10/02 06:54:18;;;;;;;33.33;11.37;;;;;;;-145.18;100.00;46654.53;4982407;28;20034;-66
2023/10/02 06:56:44;;;;;;;25.50;11.43;;;;;;;-145.18;100.00;46654.53;4991417;28;20034;-65
2023/10/02 06:59:09;;;;;;;30.07;11.67;;;;;;;-145.18;100.00;46652.59;4996308;28;20022;-66
2023/10/02 07:01:35;;;;;;;28.47;12.03;;;;;;;-145.18;100.00;46650.63;4992265;28;20034;-66
2023/10/02 07:04:09;;;;;;;26.00;11.27;;;;;;;-145.18;100.00;46650.63;4991636;28;20466;-66
2023/10/02 07:06:40;;;;;;;23.40;10.50;;;;;;;-145.18;100.00;46654.53;4990785;28;20487;-66
2023/10/02 07:09:13;;;;;;;26.77;10.63;;;;;;;-145.18;100.00;46615.47;4990938;28;20177;-66
2023/10/02 07:11:43;;;;;;;25.53;10.40;;;;;;;-145.18;100.00;46652.59;4984697;28;20114;-66
2023/10/02 07:14:10;;;;;;;26.37;10.93;;;;;;;-145.18;100.00;46654.53;4991178;28;20029;-66
2023/10/02 07:16:37;;;;;;;26.07;11.57;;;;;;;-145.18;100.00;46617.41;4988620;28;20038;-66
2023/10/02 07:19:04;;;;;;;25.43;12.13;;;;;;;-145.18;100.00;46621.31;4982324;28;20046;-66
2023/10/02 07:21:33;;;;;;;25.37;10.43;;;;;;;-145.18;100.00;46617.41;4991350;28;20027;-66
2023/10/02 07:24:02;;;;;;;33.67;11.63;;;;;;;-145.18;100.00;46617.41;4991260;28;20078;-65
2023/10/02 07:29:12;;;;;;;27.73;12.00;;;;;;;-145.18;100.00;46619.38;4991791;28;20092;-66
2023/10/02 07:31:37;;;;;;;27.67;10.97;;;;;;;-145.18;100.00;46621.31;4991398;28;20031;-66
2023/10/02 07:34:02;;;;;;;25.37;10.33;;;;;;;-145.18;100.00;46617.41;4991664;28;20057;-67
2023/10/02 07:36:30;;;;;;;24.23;11.43;;;;;;;-145.18;100.00;46623.28;4992283;28;20037;-66
2023/10/02 07:38:58;;;;;;;27.20;11.73;;;;;;;-145.18;100.00;46623.28;4995304;28;20054;-66
2023/10/02 07:41:28;;;;;;;23.97;11.63;;;;;;;-145.18;100.00;46625.22;4995412;28;20037;-66
2023/10/02 07:43:55;;;;;;;34.10;12.60;;;;;;;-145.18;100.00;46623.28;4984103;28;20074;-66
2023/10/02 07:46:22;;;;;;;26.67;11.20;;;;;;;-145.18;100.00;46617.41;4994986;28;20034;-65
2023/10/02 07:49:04;;;;;;;26.87;11.33;;;;;;;-145.18;100.00;46625.22;4995083;28;20077;-65
2023/10/02 07:51:35;;;;;;;30.93;12.60;;;;;;;-145.18;100.00;46629.13;4994928;28;20037;-66
2023/10/02 07:54:01;;;;;;;25.43;11.37;;;;;;;-145.18;100.00;46625.22;4994385;28;20486;-66
2023/10/02 07:56:29;;;;;;;27.50;12.17;;;;;;;-145.18;100.00;46625.22;4995344;28;20038;-65
2023/10/02 07:59:01;;;;;;;29.20;11.97;;;;;;;-145.18;100.00;46629.13;4982573;28;20117;-65
2023/10/02 08:01:33;;;;;;;28.07;11.97;;;;;;;-145.18;100.00;46627.19;4995305;28;20371;-65
2023/10/02 08:04:01;;;;;;;26.80;11.93;;;;;;;-145.18;100.00;46621.31;4993952;28;20034;-67
2023/10/02 08:06:33;;;;;;;29.83;12.93;;;;;;;-145.18;100.00;46631.09;4994667;28;20405;-67
2023/10/02 08:11:49;;;;;;;26.60;12.32;;;;;;;-145.18;100.00;46631.09;4994437;28;20045;-65
2023/10/02 08:14:38;;;;;;;31.33;11.33;;;;;;;-145.18;100.00;46627.19;4993957;28;20022;-65
2023/10/02 08:17:18;;;;;;;26.07;11.80;;;;;;;-145.18;100.00;46633.06;4987251;28;20034;-64
2023/10/02 08:19:54;;;;;;;27.63;11.83;;;;;;;-145.18;100.00;46635.00;4994291;28;20030;-65
2023/10/02 08:22:23;;;;;;;25.30;12.03;;;;;;;-145.18;100.00;46635.00;4994176;28;20053;-60
2023/10/02 08:24:50;;;;;;;25.97;12.10;;;;;;;-145.18;100.00;46636.94;4993230;28;20387;-60
2023/10/02 08:27:15;;;;;;;29.87;12.53;;;;;;;-145.18;100.00;46640.88;4994410;28;20086;-60
2023/10/02 08:29:41;;;;;;;22.70;10.00;;;;;;;-145.18;100.00;46638.91;4994365;28;20042;-60
2023/10/02 08:32:07;;;;;;;26.97;12.33;;;;;;;-145.18;100.00;46636.94;4994091;28;20041;-60
2023/10/02 08:34:32;;;;;;;23.30;11.80;;;;;;;-145.18;100.00;46642.81;4994388;28;20026;-60
2023/10/02 08:37:12;;;;;;;27.87;13.17;;;;;;;-145.18;100.00;46636.94;4992586;28;20038;-60
2023/10/02 08:39:41;;;;;;;27.20;12.53;;;;;;;-145.18;100.00;46640.88;4993631;28;20389;-60
2023/10/02 08:42:11;;;;;;;28.03;11.27;;;;;;;-145.18;100.00;46642.81;4992852;28;20058;-60
2023/10/02 08:44:42;;;;;;;29.20;12.43;;;;;;;-145.18;100.00;46642.81;4993779;28;20037;-60
2023/10/02 08:47:12;;;;;;;33.33;11.70;;;;;;;-145.18;100.00;46644.78;4986887;28;20031;-60
2023/10/02 08:49:38;;;;;;;28.80;11.17;;;;;;;-145.18;100.00;46642.81;4993555;28;20501;-60
2023/10/02 08:52:08;;;;;;;22.17;11.10;;;;;;;-145.18;100.00;46642.81;4994397;28;20066;-60
2023/10/02 08:54:34;;;;;;;36.13;12.50;;;;;;;-145.18;100.00;46642.81;4982952;28;20034;-60
2023/10/02 08:57:08;;;;;;;28.37;11.27;;;;;;;-145.18;100.00;46642.81;4993844;28;20157;-60
2023/10/02 08:59:41;;;;;;;29.93;12.60;;;;;;;-145.18;100.00;46642.81;4993761;28;20482;-60
2023/10/02 09:02:16;;;;;;;30.13;12.53;;;;;;;-145.18;100.00;46648.69;4993499;28;20035;-60
2023/10/02 09:04:51;;;;;;;25.38;12.00;;;;;;;-145.18;100.00;46648.69;4993736;28;20068;-60
2023/10/02 09:07:44;;;;;;;25.08;11.00;;;;;;;-145.18;100.00;46642.81;4993484;28;20486;-60
2023/10/02 09:10:26;;;;;;;26.50;12.23;;;;;;;-145.18;100.00;46640.88;4993396;28;20498;-60
2023/10/02 09:13:14;;;;;;;29.80;12.67;;;;;;;-145.18;100.00;46644.78;4993828;28;20084;-60
2023/10/02 09:15:48;;;;;;;28.73;12.37;;;;;;;-145.18;100.00;46648.69;4981799;28;20026;-60
2023/10/02 09:19:07;;;;;;;26.37;12.07;;;;;;;-145.18;100.00;46650.63;4993152;28;20022;-60
2023/10/02 09:21:21;;;;;;;30.00;13.20;;;;;;;-145.18;100.00;46660.41;4992713;28;20434;-60
2023/10/02 09:23:51;;;;;;;26.40;12.23;;;;;;;-145.18;100.00;46652.59;4993076;28;20034;-60
2023/10/02 09:26:16;;;;;;;26.50;11.13;;;;;;;-145.18;100.00;46648.69;4993317;28;20039;-60
2023/10/02 09:28:58;;;;;;;28.63;12.33;;;;;;;-145.18;100.00;46656.50;4993007;28;20026;-60
2023/10/02 09:31:26;;;;;;;31.77;12.43;;;;;;;-145.18;100.00;46652.59;4982299;28;20109;-60
2023/10/02 09:33:51;;;;;;;25.90;12.60;;;;;;;-145.18;100.00;46650.63;4993002;28;20030;-60
2023/10/02 09:36:34;;;;;;;30.33;13.27;;;;;;;-145.18;100.00;46654.53;4982630;28;20030;-60
2023/10/02 09:39:31;;;;;;;30.93;12.87;;;;;;;-145.18;100.00;46654.53;4993139;28;20076;-61
2023/10/02 09:41:49;;;;;;;27.97;12.93;;;;;;;-145.18;100.00;46648.69;4984121;28;20050;-60
2023/10/02 09:44:21;;;;;;;24.67;11.83;;;;;;;-145.18;100.00;46648.69;4992563;28;20118;-60
2023/10/02 09:46:51;;;;;;;30.63;12.37;;;;;;;-145.18;100.00;46648.69;4993111;28;20018;-60
2023/10/02 09:49:23;;;;;;;30.73;13.60;;;;;;;-145.18;100.00;46654.53;4992937;28;20054;-60
2023/10/02 09:52:12;;;;;;;28.57;12.80;;;;;;;-145.18;100.00;46646.72;4992867;28;20085;-60
2023/10/02 09:54:45;;;;;;;29.53;12.43;;;;;;;-145.18;100.00;46654.53;4982172;28;20029;-60
2023/10/02 09:57:17;;;;;;;31.33;12.80;;;;;;;-145.18;100.00;46660.41;4992543;28;20026;-60
2023/10/02 09:59:55;;;;;;;32.90;12.83;;;;;;;-145.18;100.00;46656.50;4992694;28;20054;-60
2023/10/02 10:07:52;;;;;;;26.73;12.20;;;;;;;-145.18;100.00;46662.34;4990835;28;20026;-60
2023/10/02 10:10:47;;;;;;;27.50;12.77;;;;;;;-145.18;100.00;46674.06;4992336;28;20080;-60
2023/10/02 10:13:46;;;;;;;29.23;12.17;;;;;;;-145.18;100.00;46674.06;4985467;28;20437;-60
2023/10/02 10:16:18;;;;;;;26.30;12.40;;;;;;;-145.18;100.00;46683.84;4982701;28;20033;-61
2023/10/02 10:22:10;;;;;;;28.53;11.87;;;;;;;-145.18;100.00;46674.06;4991927;28;20026;-60
2023/10/02 10:24:36;;;;;;;31.10;12.93;;;;;;;-145.18;100.00;46676.03;4981596;28;20050;-60
2023/10/02 10:27:02;;;;;;;27.60;13.27;;;;;;;-145.18;100.00;46672.13;4992050;28;20524;-61
2023/10/02 10:29:42;;;;;;;30.07;12.33;;;;;;;-145.18;100.00;46676.03;4992297;28;20382;-60
2023/10/02 10:32:18;;;;;;;28.50;12.47;;;;;;;-145.18;100.00;46676.03;4991948;28;20162;-61
2023/10/02 10:35:21;;;;;;;26.30;12.43;;;;;;;-145.18;100.00;46679.94;4992386;28;20107;-61
2023/10/02 10:37:48;;;;;;;28.23;12.73;;;;;;;-145.18;100.00;46676.03;4988758;28;20409;-60
2023/10/02 10:40:46;;;;;;;28.33;12.43;;;;;;;-145.18;100.00;46674.06;4991786;28;20041;-65
2023/10/02 10:43:14;;;;;;;27.53;12.70;;;;;;;-145.18;100.00;46650.63;4986462;28;20069;-65
2023/10/02 10:45:40;;;;;;;29.17;12.50;;;;;;;-145.18;100.00;46635.00;4992079;28;20031;-65
2023/10/02 10:48:21;;;;;;;26.93;12.57;;;;;;;-145.18;100.00;46644.78;4992133;28;20041;-65
2023/10/02 10:50:59;;;;;;;27.53;12.23;;;;;;;-145.18;100.00;46652.59;4991247;28;20022;-65
2023/10/02 10:53:32;;;;;;;25.40;11.97;;;;;;;-145.18;100.00;46601.78;4991789;28;20552;-65
2023/10/02 10:56:16;;;;;;;28.80;12.43;;;;;;;-145.18;100.00;46554.91;4991551;28;20550;-65
2023/10/02 10:58:46;;;;;;;28.77;12.27;;;;;;;-145.18;100.00;46543.19;4985620;28;20086;-64
2023/10/02 11:01:21;;;;;;;31.40;11.50;;;;;;;-145.18;100.00;46545.16;4986259;28;20058;-65
2023/10/02 11:03:55;;;;;;;29.63;11.93;;;;;;;-145.18;100.00;46552.97;4991778;28;20030;-65
2023/10/02 11:06:24;;;;;;;29.40;11.73;;;;;;;-145.18;100.00;46549.06;4991710;28;20767;-64
2023/10/02 11:09:11;;;;;;;22.23;11.43;;;;;;;-145.18;100.00;46551.00;4991907;28;20275;-65
2023/10/02 11:11:53;;;;;;;31.88;12.60;;;;;;;-145.18;100.00;46541.25;4991595;28;20036;-65
2023/10/02 11:14:34;;;;;;;29.08;12.00;;;;;;;-145.18;100.00;46554.91;4990222;28;20026;-64
2023/10/02 11:17:11;;;;;;;29.70;12.40;;;;;;;-145.18;100.00;46572.50;4991040;28;20022;-64
2023/10/02 11:19:45;;;;;;;29.88;12.30;;;;;;;-145.18;100.00;46543.19;4995739;28;20038;-65
2023/10/02 11:22:20;;;;;;;28.60;12.57;;;;;;;-145.18;100.00;46551.00;4994343;28;20102;-65
2023/10/02 11:24:48;;;;;;;25.23;12.25;;;;;;;-145.18;100.00;46541.25;4995102;28;20292;-64
2023/10/02 11:27:17;;;;;;;28.58;11.05;;;;;;;-145.18;100.00;46539.28;4995545;28;20034;-64
2023/10/02 11:29:45;;;;;;;26.42;11.27;;;;;;;-145.18;100.00;46539.28;4995358;28;20145;-65
2023/10/02 11:32:24;;;;;;;26.10;11.15;;;;;;;-145.18;100.00;46545.16;4995417;28;20141;-64
2023/10/02 11:34:51;;;;;;;29.33;11.95;;;;;;;-145.18;100.00;46523.66;4992501;28;20045;-64
2023/10/02 11:37:18;;;;;;;21.08;10.73;;;;;;;-145.18;100.00;46529.53;4995385;28;20046;-64
2023/10/02 11:39:45;;;;;;;23.75;10.40;;;;;;;-145.18;100.00;46521.72;4995062;28;20057;-64
2023/10/02 11:42:11;;;;;;;24.98;9.85;;;;;;;-145.18;100.00;46543.19;4994169;28;20121;-65
2023/10/02 11:44:39;;;;;;;21.58;9.95;;;;;;;-145.18;100.00;46539.28;4993810;28;20474;-64
2023/10/02 11:47:09;;;;;;;28.08;11.30;;;;;;;-145.18;100.00;46549.06;4995333;28;20501;-64
2023/10/02 11:49:35;;;;;;;23.98;10.55;;;;;;;-145.18;100.00;46541.25;4994712;28;20038;-64
2023/10/02 11:52:02;;;;;;;24.40;11.32;;;;;;;-145.18;100.00;46539.28;4993581;28;20026;-60